createdAt,value
2022-11-24T00:00:04.437Z,97511.00
2022-11-24T00:00:14.474Z,97511.00
2022-11-24T00:00:24.486Z,97513.00
2022-11-24T00:00:34.508Z,97513.00
2022-11-24T00:00:44.527Z,97513.00
2022-11-24T00:00:54.525Z,97515.00
2022-11-24T00:01:04.531Z,97515.00
2022-11-24T00:01:14.634Z,97515.00
2022-11-24T00:01:24.646Z,97517.00
2022-11-24T00:01:34.663Z,97513.00
2022-11-24T00:01:44.675Z,97517.00
2022-11-24T00:01:54.770Z,97517.00
2022-11-24T00:02:04.891Z,97515.00
2022-11-24T00:02:14.935Z,97517.00
2022-11-24T00:02:25.014Z,97519.00
2022-11-24T00:02:35.121Z,97517.00
2022-11-24T00:02:45.134Z,97519.00
2022-11-24T00:02:55.245Z,97521.00
2022-11-24T00:03:05.467Z,97519.00
2022-11-24T00:03:15.519Z,97517.00
2022-11-24T00:03:25.467Z,97517.00
2022-11-24T00:03:35.531Z,97515.00
2022-11-24T00:03:45.551Z,97515.00
2022-11-24T00:03:55.667Z,97519.00
2022-11-24T00:04:05.670Z,97515.00
2022-11-24T00:04:15.799Z,97517.00
2022-11-24T00:04:25.797Z,97517.00
2022-11-24T00:04:36.176Z,97515.00
2022-11-24T00:04:45.966Z,97519.00
2022-11-24T00:04:56.001Z,97515.00
2022-11-24T00:05:06.013Z,97517.00
2022-11-24T00:05:16.018Z,97519.00
2022-11-24T00:05:26.030Z,97519.00
2022-11-24T00:05:36.060Z,97519.00
2022-11-24T00:05:46.049Z,97521.00
2022-11-24T00:05:56.055Z,97519.00
2022-11-24T00:06:06.072Z,97519.00
2022-11-24T00:06:16.123Z,97517.00
2022-11-24T00:06:26.113Z,97517.00
2022-11-24T00:06:36.145Z,97515.00
2022-11-24T00:06:46.129Z,97517.00
2022-11-24T00:06:56.133Z,97515.00
2022-11-24T00:07:06.224Z,97515.00
2022-11-24T00:07:16.302Z,97517.00
2022-11-24T00:07:26.355Z,97515.00
2022-11-24T00:07:36.677Z,97515.00
2022-11-24T00:07:46.779Z,97517.00
2022-11-24T00:07:56.846Z,97517.00
2022-11-24T00:08:06.846Z,97517.00
2022-11-24T00:08:16.878Z,97515.00
2022-11-24T00:08:26.883Z,97517.00
2022-11-24T00:08:36.882Z,97517.00
2022-11-24T00:08:46.898Z,97517.00
2022-11-24T00:08:56.902Z,97519.00
2022-11-24T00:09:06.923Z,97517.00
2022-11-24T00:09:16.916Z,97515.00
2022-11-24T00:09:26.933Z,97515.00
2022-11-24T00:09:36.940Z,97517.00
2022-11-24T00:09:46.965Z,97515.00
2022-11-24T00:09:56.974Z,97515.00
2022-11-24T00:10:06.977Z,97517.00
2022-11-24T00:10:16.985Z,97513.00
2022-11-24T00:10:26.991Z,97513.00
2022-11-24T00:10:37.008Z,97515.00
2022-11-24T00:10:47.012Z,97517.00
2022-11-24T00:10:57.025Z,97515.00
2022-11-24T00:11:07.070Z,97515.00
2022-11-24T00:11:17.088Z,97515.00
2022-11-24T00:11:27.094Z,97515.00
2022-11-24T00:11:37.101Z,97515.00
2022-11-24T00:11:47.117Z,97515.00
2022-11-24T00:11:57.240Z,97517.00
2022-11-24T00:12:07.250Z,97517.00
2022-11-24T00:12:17.383Z,97517.00
2022-11-24T00:12:27.396Z,97513.00
2022-11-24T00:12:37.404Z,97515.00
2022-11-24T00:12:47.548Z,97517.00
2022-11-24T00:12:57.690Z,97517.00
2022-11-24T00:13:07.691Z,97521.00
2022-11-24T00:13:17.969Z,97517.00
2022-11-24T00:13:27.971Z,97519.00
2022-11-24T00:13:37.985Z,97519.00
2022-11-24T00:13:47.997Z,97519.00
2022-11-24T00:13:58.013Z,97519.00
2022-11-24T00:14:08.012Z,97517.00
2022-11-24T00:14:18.028Z,97521.00
2022-11-24T00:14:28.037Z,97521.00
2022-11-24T00:14:38.044Z,97521.00
2022-11-24T00:14:48.045Z,97519.00
2022-11-24T00:14:58.054Z,97521.00
2022-11-24T00:15:08.058Z,97519.00
2022-11-24T00:15:18.062Z,97521.00
2022-11-24T00:15:28.074Z,97521.00
2022-11-24T00:15:38.078Z,97521.00
2022-11-24T00:15:48.087Z,97521.00
2022-11-24T00:15:58.084Z,97521.00
2022-11-24T00:16:08.090Z,97521.00
2022-11-24T00:16:18.137Z,97521.00
2022-11-24T00:16:28.245Z,97521.00
2022-11-24T00:16:38.219Z,97523.00
2022-11-24T00:16:48.317Z,97523.00
2022-11-24T00:16:58.462Z,97519.00
2022-11-24T00:17:08.559Z,97519.00
2022-11-24T00:17:18.702Z,97521.00
2022-11-24T00:17:28.712Z,97521.00
2022-11-24T00:17:38.762Z,97519.00
2022-11-24T00:17:48.770Z,97521.00
2022-11-24T00:17:58.818Z,97521.00
2022-11-24T00:18:08.814Z,97521.00
2022-11-24T00:18:18.818Z,97519.00
2022-11-24T00:18:28.824Z,97519.00
2022-11-24T00:18:38.947Z,97519.00
2022-11-24T00:18:48.965Z,97523.00
2022-11-24T00:18:59.240Z,97521.00
2022-11-24T00:19:09.387Z,97525.00
2022-11-24T00:19:19.916Z,97523.00
2022-11-24T00:19:29.302Z,97523.00
2022-11-24T00:19:39.309Z,97525.00
2022-11-24T00:19:49.327Z,97525.00
2022-11-24T00:19:59.338Z,97527.00
2022-11-24T00:20:09.339Z,97523.00
2022-11-24T00:20:19.459Z,97525.00
2022-11-24T00:20:29.460Z,97525.00
2022-11-24T00:20:39.749Z,97527.00
2022-11-24T00:20:49.757Z,97527.00
2022-11-24T00:20:59.770Z,97527.00
2022-11-24T00:21:09.781Z,97525.00
2022-11-24T00:21:19.896Z,97529.00
2022-11-24T00:21:29.899Z,97529.00
2022-11-24T00:21:39.917Z,97529.00
2022-11-24T00:21:49.914Z,97531.00
2022-11-24T00:22:00.041Z,97531.00
2022-11-24T00:22:10.040Z,97527.00
2022-11-24T00:22:20.177Z,97527.00
2022-11-24T00:22:30.181Z,97529.00
2022-11-24T00:22:40.303Z,97527.00
2022-11-24T00:22:50.575Z,97529.00
2022-11-24T00:23:00.569Z,97527.00
2022-11-24T00:23:10.566Z,97527.00
2022-11-24T00:23:20.569Z,97529.00
2022-11-24T00:23:30.577Z,97529.00
2022-11-24T00:23:40.600Z,97529.00
2022-11-24T00:23:50.621Z,97527.00
2022-11-24T00:24:00.612Z,97529.00
2022-11-24T00:24:10.614Z,97531.00
2022-11-24T00:24:20.612Z,97529.00
2022-11-24T00:24:30.823Z,97531.00
2022-11-24T00:24:40.653Z,97529.00
2022-11-24T00:24:50.652Z,97535.00
2022-11-24T00:25:00.775Z,97533.00
2022-11-24T00:25:11.040Z,97533.00
2022-11-24T00:25:21.035Z,97535.00
2022-11-24T00:25:31.045Z,97535.00
2022-11-24T00:25:41.041Z,97533.00
2022-11-24T00:25:51.054Z,97535.00
2022-11-24T00:26:01.203Z,97535.00
2022-11-24T00:26:11.185Z,97533.00
2022-11-24T00:26:21.312Z,97535.00
2022-11-24T00:26:31.312Z,97536.00
2022-11-24T00:26:41.437Z,97533.00
2022-11-24T00:26:51.441Z,97535.00
2022-11-24T00:27:01.444Z,97533.00
2022-11-24T00:27:11.447Z,97535.00
2022-11-24T00:27:21.449Z,97533.00
2022-11-24T00:27:31.454Z,97535.00
2022-11-24T00:27:41.585Z,97533.00
2022-11-24T00:27:51.589Z,97533.00
2022-11-24T00:28:01.595Z,97535.00
2022-11-24T00:28:11.595Z,97536.00
2022-11-24T00:28:21.721Z,97535.00
2022-11-24T00:28:31.865Z,97531.00
2022-11-24T00:28:41.866Z,97533.00
2022-11-24T00:28:51.871Z,97535.00
2022-11-24T00:29:02.246Z,97533.00
2022-11-24T00:29:12.260Z,97533.00
2022-11-24T00:29:22.381Z,97535.00
2022-11-24T00:29:32.636Z,97536.00
2022-11-24T00:29:42.652Z,97536.00
2022-11-24T00:29:52.654Z,97535.00
2022-11-24T00:30:03.038Z,97536.00
2022-11-24T00:30:13.035Z,97535.00
2022-11-24T00:30:23.158Z,97535.00
2022-11-24T00:30:33.492Z,97535.00
2022-11-24T00:30:43.547Z,97535.00
2022-11-24T00:30:53.652Z,97535.00
2022-11-24T00:31:03.735Z,97535.00
2022-11-24T00:31:16.981Z,97531.00
2022-11-24T00:31:23.891Z,97533.00
2022-11-24T00:31:34.005Z,97533.00
2022-11-24T00:31:43.824Z,97533.00
2022-11-24T00:31:53.824Z,97531.00
2022-11-24T00:32:03.968Z,97533.00
2022-11-24T00:32:13.973Z,97533.00
2022-11-24T00:32:24.092Z,97533.00
2022-11-24T00:32:34.376Z,97533.00
2022-11-24T00:32:44.368Z,97531.00
2022-11-24T00:32:54.378Z,97535.00
2022-11-24T00:33:04.386Z,97535.00
2022-11-24T00:33:14.404Z,97535.00
2022-11-24T00:33:24.418Z,97535.00
2022-11-24T00:33:34.419Z,97535.00
2022-11-24T00:33:44.470Z,97536.00
2022-11-24T00:33:54.470Z,97536.00
2022-11-24T00:34:04.476Z,97535.00
2022-11-24T00:34:14.487Z,97535.00
2022-11-24T00:34:24.478Z,97533.00
2022-11-24T00:34:34.831Z,97533.00
2022-11-24T00:34:44.575Z,97531.00
2022-11-24T00:34:54.567Z,97533.00
2022-11-24T00:35:04.716Z,97531.00
2022-11-24T00:35:14.717Z,97533.00
2022-11-24T00:35:24.985Z,97533.00
2022-11-24T00:35:34.985Z,97533.00
2022-11-24T00:35:45.015Z,97531.00
2022-11-24T00:35:54.986Z,97533.00
2022-11-24T00:36:05.110Z,97531.00
2022-11-24T00:36:15.118Z,97533.00
2022-11-24T00:36:25.113Z,97533.00
2022-11-24T00:36:35.136Z,97531.00
2022-11-24T00:36:45.133Z,97533.00
2022-11-24T00:36:55.125Z,97531.00
2022-11-24T00:37:05.378Z,97533.00
2022-11-24T00:37:15.378Z,97533.00
2022-11-24T00:37:25.498Z,97533.00
2022-11-24T00:37:35.770Z,97535.00
2022-11-24T00:37:45.888Z,97535.00
2022-11-24T00:37:55.883Z,97536.00
2022-11-24T00:38:06.142Z,97535.00
2022-11-24T00:38:16.149Z,97535.00
2022-11-24T00:38:26.162Z,97536.00
2022-11-24T00:38:36.166Z,97536.00
2022-11-24T00:38:46.175Z,97535.00
2022-11-24T00:38:56.171Z,97538.00
2022-11-24T00:39:06.299Z,97540.00
2022-11-24T00:39:16.304Z,97538.00
2022-11-24T00:39:26.304Z,97540.00
2022-11-24T00:39:36.306Z,97542.00
2022-11-24T00:39:46.570Z,97538.00
2022-11-24T00:39:56.573Z,97538.00
2022-11-24T00:40:06.585Z,97540.00
2022-11-24T00:40:16.582Z,97542.00
2022-11-24T00:40:29.689Z,97538.00
2022-11-24T00:40:36.606Z,97540.00
2022-11-24T00:40:46.618Z,97540.00
2022-11-24T00:40:56.621Z,97542.00
2022-11-24T00:41:06.638Z,97542.00
2022-11-24T00:41:16.652Z,97540.00
2022-11-24T00:41:26.792Z,97538.00
2022-11-24T00:41:36.798Z,97540.00
2022-11-24T00:41:46.815Z,97542.00
2022-11-24T00:41:56.820Z,97538.00
2022-11-24T00:42:06.926Z,97540.00
2022-11-24T00:42:16.942Z,97540.00
2022-11-24T00:42:26.955Z,97540.00
2022-11-24T00:42:36.963Z,97542.00
2022-11-24T00:42:46.975Z,97540.00
2022-11-24T00:42:56.978Z,97544.00
2022-11-24T00:43:07.242Z,97544.00
2022-11-24T00:43:17.252Z,97544.00
2022-11-24T00:43:27.262Z,97544.00
2022-11-24T00:43:37.272Z,97544.00
2022-11-24T00:43:47.280Z,97544.00
2022-11-24T00:43:57.399Z,97542.00
2022-11-24T00:44:07.413Z,97544.00
2022-11-24T00:44:17.425Z,97546.00
2022-11-24T00:44:27.445Z,97546.00
2022-11-24T00:44:37.464Z,97544.00
2022-11-24T00:44:47.719Z,97546.00
2022-11-24T00:44:57.838Z,97546.00
2022-11-24T00:45:13.923Z,97546.00
2022-11-24T00:45:17.965Z,97546.00
2022-11-24T00:45:27.967Z,97544.00
2022-11-24T00:45:38.000Z,97544.00
2022-11-24T00:45:48.163Z,97546.00
2022-11-24T00:45:58.213Z,97544.00
2022-11-24T00:46:08.285Z,97546.00
2022-11-24T00:46:18.423Z,97548.00
2022-11-24T00:46:28.575Z,97550.00
2022-11-24T00:46:38.666Z,97550.00
2022-11-24T00:46:48.904Z,97550.00
2022-11-24T00:46:58.925Z,97548.00
2022-11-24T00:47:09.113Z,97550.00
2022-11-24T00:47:19.137Z,97548.00
2022-11-24T00:47:29.157Z,97550.00
2022-11-24T00:47:39.165Z,97550.00
2022-11-24T00:47:49.174Z,97548.00
2022-11-24T00:47:59.186Z,97548.00
2022-11-24T00:48:09.195Z,97548.00
2022-11-24T00:48:19.211Z,97548.00
2022-11-24T00:48:29.238Z,97546.00
2022-11-24T00:48:39.265Z,97548.00
2022-11-24T00:48:49.238Z,97550.00
2022-11-24T00:48:59.250Z,97550.00
2022-11-24T00:49:09.274Z,97552.00
2022-11-24T00:49:19.274Z,97552.00
2022-11-24T00:49:29.277Z,97552.00
2022-11-24T00:49:39.395Z,97554.00
2022-11-24T00:49:49.394Z,97552.00
2022-11-24T00:49:59.687Z,97554.00
2022-11-24T00:50:09.685Z,97552.00
2022-11-24T00:50:19.688Z,97554.00
2022-11-24T00:50:29.700Z,97554.00
2022-11-24T00:50:39.719Z,97554.00
2022-11-24T00:50:49.743Z,97552.00
2022-11-24T00:50:59.723Z,97552.00
2022-11-24T00:51:09.745Z,97548.00
2022-11-24T00:51:19.751Z,97552.00
2022-11-24T00:51:29.761Z,97552.00
2022-11-24T00:51:39.776Z,97554.00
2022-11-24T00:51:49.782Z,97554.00
2022-11-24T00:51:59.796Z,97554.00
2022-11-24T00:52:09.799Z,97556.00
2022-11-24T00:52:19.843Z,97554.00
2022-11-24T00:52:29.818Z,97554.00
2022-11-24T00:52:39.834Z,97556.00
2022-11-24T00:52:49.836Z,97552.00
2022-11-24T00:52:59.863Z,97552.00
2022-11-24T00:53:09.863Z,97554.00
2022-11-24T00:53:19.868Z,97552.00
2022-11-24T00:53:29.893Z,97552.00
2022-11-24T00:53:39.886Z,97552.00
2022-11-24T00:53:49.908Z,97554.00
2022-11-24T00:53:59.912Z,97554.00
2022-11-24T00:54:09.917Z,97554.00
2022-11-24T00:54:19.929Z,97556.00
2022-11-24T00:54:29.947Z,97556.00
2022-11-24T00:54:39.959Z,97554.00
2022-11-24T00:54:49.962Z,97554.00
2022-11-24T00:54:59.975Z,97554.00
2022-11-24T00:55:09.978Z,97554.00
2022-11-24T00:55:19.997Z,97558.00
2022-11-24T00:55:30.007Z,97556.00
2022-11-24T00:55:40.019Z,97558.00
2022-11-24T00:55:50.022Z,97560.00
2022-11-24T00:56:00.028Z,97558.00
2022-11-24T00:56:10.042Z,97560.00
2022-11-24T00:56:20.045Z,97558.00
2022-11-24T00:56:30.063Z,97558.00
2022-11-24T00:56:40.079Z,97560.00
2022-11-24T00:56:50.076Z,97560.00
2022-11-24T00:57:00.106Z,97560.00
2022-11-24T00:57:10.112Z,97560.00
2022-11-24T00:57:20.247Z,97558.00
2022-11-24T00:57:30.515Z,97564.00
2022-11-24T00:57:40.523Z,97566.00
2022-11-24T00:57:50.524Z,97562.00
2022-11-24T00:58:00.906Z,97564.00
2022-11-24T00:58:10.907Z,97566.00
2022-11-24T00:58:20.936Z,97562.00
2022-11-24T00:58:30.942Z,97564.00
2022-11-24T00:58:40.951Z,97562.00
2022-11-24T00:58:50.952Z,97564.00
2022-11-24T00:59:00.952Z,97562.00
2022-11-24T00:59:10.966Z,97558.00
2022-11-24T00:59:20.973Z,97560.00
2022-11-24T00:59:30.990Z,97564.00
2022-11-24T00:59:41.370Z,97562.00
2022-11-24T00:59:51.372Z,97562.00
2022-11-24T01:00:01.377Z,97560.00
2022-11-24T01:00:11.383Z,97558.00
2022-11-24T01:00:21.393Z,97556.00
2022-11-24T01:00:31.420Z,97556.00
2022-11-24T01:00:41.423Z,97560.00
2022-11-24T01:00:51.429Z,97562.00
2022-11-24T01:01:01.499Z,97562.00
2022-11-24T01:01:11.737Z,97564.00
2022-11-24T01:01:21.999Z,97562.00
2022-11-24T01:01:32.047Z,97562.00
2022-11-24T01:01:42.060Z,97562.00
2022-11-24T01:01:52.080Z,97562.00
2022-11-24T01:02:02.019Z,97560.00
2022-11-24T01:02:12.106Z,97564.00
2022-11-24T01:02:22.142Z,97560.00
2022-11-24T01:02:32.230Z,97564.00
2022-11-24T01:02:42.263Z,97566.00
2022-11-24T01:02:52.279Z,97562.00
2022-11-24T01:03:02.430Z,97564.00
2022-11-24T01:03:12.336Z,97564.00
2022-11-24T01:03:22.335Z,97566.00
2022-11-24T01:03:32.334Z,97566.00
2022-11-24T01:03:42.490Z,97566.00
2022-11-24T01:03:52.511Z,97568.00
2022-11-24T01:04:02.577Z,97568.00
2022-11-24T01:04:12.617Z,97570.00
2022-11-24T01:04:22.618Z,97568.00
2022-11-24T01:04:32.873Z,97568.00
2022-11-24T01:04:42.689Z,97568.00
2022-11-24T01:04:52.732Z,97566.00
2022-11-24T01:05:02.852Z,97566.00
2022-11-24T01:05:12.855Z,97564.00
2022-11-24T01:05:23.131Z,97566.00
2022-11-24T01:05:33.132Z,97568.00
2022-11-24T01:05:43.122Z,97568.00
2022-11-24T01:05:53.147Z,97570.00
2022-11-24T01:06:03.147Z,97570.00
2022-11-24T01:06:13.148Z,97570.00
2022-11-24T01:06:23.162Z,97568.00
2022-11-24T01:06:33.166Z,97568.00
2022-11-24T01:06:43.188Z,97570.00
2022-11-24T01:06:53.187Z,97570.00
2022-11-24T01:07:03.199Z,97568.00
2022-11-24T01:07:13.227Z,97568.00
2022-11-24T01:07:23.280Z,97566.00
2022-11-24T01:07:33.349Z,97566.00
2022-11-24T01:07:43.427Z,97568.00
2022-11-24T01:07:53.527Z,97568.00
2022-11-24T01:08:03.567Z,97568.00
2022-11-24T01:08:13.826Z,97570.00
2022-11-24T01:08:23.840Z,97570.00
2022-11-24T01:08:33.830Z,97568.00
2022-11-24T01:08:44.215Z,97568.00
2022-11-24T01:08:54.209Z,97568.00
2022-11-24T01:09:04.216Z,97568.00
2022-11-24T01:09:14.228Z,97568.00
2022-11-24T01:09:24.235Z,97568.00
2022-11-24T01:09:34.274Z,97568.00
2022-11-24T01:09:44.275Z,97568.00
2022-11-24T01:09:54.280Z,97568.00
2022-11-24T01:10:04.419Z,97566.00
2022-11-24T01:10:14.421Z,97566.00
2022-11-24T01:10:24.683Z,97566.00
2022-11-24T01:10:34.696Z,97566.00
2022-11-24T01:10:44.693Z,97566.00
2022-11-24T01:10:54.713Z,97566.00
2022-11-24T01:11:04.719Z,97566.00
2022-11-24T01:11:14.725Z,97566.00
2022-11-24T01:11:24.738Z,97568.00
2022-11-24T01:11:34.737Z,97568.00
2022-11-24T01:11:44.743Z,97570.00
2022-11-24T01:11:54.749Z,97572.00
2022-11-24T01:12:04.753Z,97574.00
2022-11-24T01:12:14.761Z,97574.00
2022-11-24T01:12:24.754Z,97574.00
2022-11-24T01:12:34.766Z,97570.00
2022-11-24T01:12:44.773Z,97574.00
2022-11-24T01:12:54.802Z,97568.00
2022-11-24T01:13:04.784Z,97574.00
2022-11-24T01:13:14.783Z,97572.00
2022-11-24T01:13:24.913Z,97570.00
2022-11-24T01:13:34.932Z,97570.00
2022-11-24T01:13:44.934Z,97574.00
2022-11-24T01:13:54.947Z,97574.00
2022-11-24T01:14:04.950Z,97572.00
2022-11-24T01:14:14.973Z,97570.00
2022-11-24T01:14:25.250Z,97570.00
2022-11-24T01:14:35.668Z,97570.00
2022-11-24T01:14:45.256Z,97574.00
2022-11-24T01:14:55.269Z,97576.00
2022-11-24T01:15:05.315Z,97576.00
2022-11-24T01:15:15.321Z,97576.00
2022-11-24T01:15:25.324Z,97574.00
2022-11-24T01:15:35.397Z,97576.00
2022-11-24T01:15:45.451Z,97576.00
2022-11-24T01:15:55.488Z,97576.00
2022-11-24T01:16:05.559Z,97574.00
2022-11-24T01:16:15.718Z,97576.00
2022-11-24T01:16:25.648Z,97576.00
2022-11-24T01:16:35.640Z,97576.00
2022-11-24T01:16:45.650Z,97574.00
2022-11-24T01:16:55.655Z,97576.00
2022-11-24T01:17:05.777Z,97578.00
2022-11-24T01:17:16.046Z,97578.00
2022-11-24T01:17:26.058Z,97578.00
2022-11-24T01:17:36.062Z,97578.00
2022-11-24T01:17:46.074Z,97580.00
2022-11-24T01:17:56.084Z,97576.00
2022-11-24T01:18:06.097Z,97582.00
2022-11-24T01:18:16.103Z,97578.00
2022-11-24T01:18:26.113Z,97582.00
2022-11-24T01:18:36.125Z,97578.00
2022-11-24T01:18:46.134Z,97580.00
2022-11-24T01:18:56.148Z,97578.00
2022-11-24T01:19:06.152Z,97576.00
2022-11-24T01:19:16.167Z,97574.00
2022-11-24T01:19:26.161Z,97574.00
2022-11-24T01:19:36.163Z,97580.00
2022-11-24T01:19:46.168Z,97576.00
2022-11-24T01:19:56.177Z,97576.00
2022-11-24T01:20:06.181Z,97578.00
2022-11-24T01:20:16.189Z,97582.00
2022-11-24T01:20:26.202Z,97580.00
2022-11-24T01:20:36.217Z,97580.00
2022-11-24T01:20:46.225Z,97582.00
2022-11-24T01:20:56.259Z,97578.00
2022-11-24T01:21:10.092Z,97580.00
2022-11-24T01:21:16.262Z,97583.00
2022-11-24T01:21:26.392Z,97585.00
2022-11-24T01:21:36.404Z,97583.00
2022-11-24T01:21:46.413Z,97583.00
2022-11-24T01:21:56.543Z,97582.00
2022-11-24T01:22:06.662Z,97582.00
2022-11-24T01:22:16.670Z,97580.00
2022-11-24T01:22:26.925Z,97582.00
2022-11-24T01:22:36.929Z,97583.00
2022-11-24T01:22:47.046Z,97583.00
2022-11-24T01:22:57.321Z,97585.00
2022-11-24T01:23:07.320Z,97583.00
2022-11-24T01:23:17.333Z,97583.00
2022-11-24T01:23:27.716Z,97585.00
2022-11-24T01:23:37.729Z,97585.00
2022-11-24T01:23:47.746Z,97587.00
2022-11-24T01:23:57.768Z,97587.00
2022-11-24T01:24:07.765Z,97583.00
2022-11-24T01:24:17.765Z,97583.00
2022-11-24T01:24:27.902Z,97583.00
2022-11-24T01:24:37.900Z,97587.00
2022-11-24T01:24:47.906Z,97585.00
2022-11-24T01:24:58.029Z,97585.00
2022-11-24T01:25:08.195Z,97585.00
2022-11-24T01:25:18.190Z,97587.00
2022-11-24T01:25:28.206Z,97589.00
2022-11-24T01:25:38.206Z,97589.00
2022-11-24T01:25:48.229Z,97591.00
2022-11-24T01:25:58.235Z,97591.00
2022-11-24T01:26:08.233Z,97589.00
2022-11-24T01:26:18.357Z,97593.00
2022-11-24T01:26:28.372Z,97593.00
2022-11-24T01:26:38.373Z,97593.00
2022-11-24T01:26:48.647Z,97595.00
2022-11-24T01:26:58.654Z,97595.00
2022-11-24T01:27:08.676Z,97595.00
2022-11-24T01:27:18.692Z,97595.00
2022-11-24T01:27:28.698Z,97595.00
2022-11-24T01:27:38.821Z,97595.00
2022-11-24T01:27:48.820Z,97595.00
2022-11-24T01:27:58.831Z,97595.00
2022-11-24T01:28:08.834Z,97595.00
2022-11-24T01:28:18.832Z,97595.00
2022-11-24T01:28:29.098Z,97595.00
2022-11-24T01:28:44.876Z,97595.00
2022-11-24T01:28:49.238Z,97595.00
2022-11-24T01:28:59.254Z,97595.00
2022-11-24T01:29:09.262Z,97597.00
2022-11-24T01:29:19.272Z,97595.00
2022-11-24T01:29:29.277Z,97597.00
2022-11-24T01:29:39.418Z,97591.00
2022-11-24T01:29:49.420Z,97595.00
2022-11-24T01:29:59.538Z,97593.00
2022-11-24T01:30:09.795Z,97593.00
2022-11-24T01:30:19.801Z,97593.00
2022-11-24T01:30:29.871Z,97591.00
2022-11-24T01:30:39.895Z,97593.00
2022-11-24T01:30:49.986Z,97591.00
2022-11-24T01:31:00.084Z,97589.00
2022-11-24T01:31:10.149Z,97589.00
2022-11-24T01:31:20.204Z,97589.00
2022-11-24T01:31:30.272Z,97589.00
2022-11-24T01:31:40.274Z,97591.00
2022-11-24T01:31:50.550Z,97589.00
2022-11-24T01:32:00.668Z,97591.00
2022-11-24T01:32:10.687Z,97591.00
2022-11-24T01:32:20.971Z,97593.00
2022-11-24T01:32:30.978Z,97589.00
2022-11-24T01:32:41.099Z,97589.00
2022-11-24T01:32:51.355Z,97591.00
2022-11-24T01:33:01.362Z,97589.00
2022-11-24T01:33:11.355Z,97591.00
2022-11-24T01:33:21.730Z,97591.00
2022-11-24T01:33:31.730Z,97589.00
2022-11-24T01:33:41.732Z,97593.00
2022-11-24T01:33:51.742Z,97589.00
2022-11-24T01:34:01.750Z,97593.00
2022-11-24T01:34:11.771Z,97591.00
2022-11-24T01:34:21.906Z,97593.00
2022-11-24T01:34:32.323Z,97593.00
2022-11-24T01:34:41.944Z,97595.00
2022-11-24T01:34:51.942Z,97591.00
2022-11-24T01:35:02.220Z,97593.00
2022-11-24T01:35:12.222Z,97593.00
2022-11-24T01:35:22.343Z,97591.00
2022-11-24T01:35:32.600Z,97593.00
2022-11-24T01:35:42.723Z,97589.00
2022-11-24T01:35:52.731Z,97593.00
2022-11-24T01:36:03.020Z,97595.00
2022-11-24T01:36:13.009Z,97593.00
2022-11-24T01:36:23.131Z,97593.00
2022-11-24T01:36:33.388Z,97595.00
2022-11-24T01:36:43.395Z,97597.00
2022-11-24T01:36:53.396Z,97597.00
2022-11-24T01:37:03.403Z,97597.00
2022-11-24T01:37:13.423Z,97597.00
2022-11-24T01:37:23.553Z,97597.00
2022-11-24T01:37:33.566Z,97595.00
2022-11-24T01:37:43.574Z,97597.00
2022-11-24T01:37:53.584Z,97599.00
2022-11-24T01:38:03.594Z,97597.00
2022-11-24T01:38:13.853Z,97599.00
2022-11-24T01:38:23.974Z,97599.00
2022-11-24T01:38:33.986Z,97599.00
2022-11-24T01:38:44.262Z,97599.00
2022-11-24T01:38:54.259Z,97597.00
2022-11-24T01:39:04.263Z,97601.00
2022-11-24T01:39:14.267Z,97599.00
2022-11-24T01:39:24.277Z,97599.00
2022-11-24T01:39:34.282Z,97599.00
2022-11-24T01:39:44.402Z,97597.00
2022-11-24T01:39:54.411Z,97597.00
2022-11-24T01:40:04.449Z,97597.00
2022-11-24T01:40:14.428Z,97597.00
2022-11-24T01:40:24.690Z,97597.00
2022-11-24T01:40:34.692Z,97599.00
2022-11-24T01:40:44.697Z,97597.00
2022-11-24T01:40:54.708Z,97599.00
2022-11-24T01:41:04.719Z,97601.00
2022-11-24T01:41:14.716Z,97599.00
2022-11-24T01:41:24.739Z,97603.00
2022-11-24T01:41:34.741Z,97601.00
2022-11-24T01:41:44.744Z,97601.00
2022-11-24T01:41:54.745Z,97601.00
2022-11-24T01:42:04.751Z,97601.00
2022-11-24T01:42:14.757Z,97601.00
2022-11-24T01:42:24.880Z,97601.00
2022-11-24T01:42:34.881Z,97603.00
2022-11-24T01:42:45.004Z,97605.00
2022-11-24T01:42:55.017Z,97601.00
2022-11-24T01:43:05.008Z,97605.00
2022-11-24T01:43:15.139Z,97603.00
2022-11-24T01:43:25.259Z,97603.00
2022-11-24T01:43:35.262Z,97603.00
2022-11-24T01:43:45.511Z,97603.00
2022-11-24T01:43:55.527Z,97603.00
2022-11-24T01:44:05.536Z,97601.00
2022-11-24T01:44:15.538Z,97603.00
2022-11-24T01:44:25.550Z,97603.00
2022-11-24T01:44:35.890Z,97603.00
2022-11-24T01:44:45.673Z,97605.00
2022-11-24T01:44:55.682Z,97605.00
2022-11-24T01:45:05.817Z,97605.00
2022-11-24T01:45:15.827Z,97605.00
2022-11-24T01:45:25.976Z,97607.00
2022-11-24T01:45:36.000Z,97605.00
2022-11-24T01:45:46.040Z,97609.00
2022-11-24T01:45:56.101Z,97609.00
2022-11-24T01:46:06.209Z,97609.00
2022-11-24T01:46:16.432Z,97607.00
2022-11-24T01:46:26.401Z,97607.00
2022-11-24T01:46:36.378Z,97607.00
2022-11-24T01:46:46.417Z,97607.00
2022-11-24T01:46:56.432Z,97607.00
2022-11-24T01:47:06.436Z,97609.00
2022-11-24T01:47:16.444Z,97609.00
2022-11-24T01:47:26.456Z,97611.00
2022-11-24T01:47:36.466Z,97609.00
2022-11-24T01:47:46.475Z,97611.00
2022-11-24T01:47:56.500Z,97613.00
2022-11-24T01:48:06.529Z,97611.00
2022-11-24T01:48:16.585Z,97613.00
2022-11-24T01:48:27.944Z,97611.00
2022-11-24T01:48:36.658Z,97611.00
2022-11-24T01:48:46.779Z,97613.00
2022-11-24T01:48:56.794Z,97611.00
2022-11-24T01:49:06.805Z,97617.00
2022-11-24T01:49:16.806Z,97617.00
2022-11-24T01:49:26.812Z,97611.00
2022-11-24T01:49:36.818Z,97613.00
2022-11-24T01:49:46.821Z,97611.00
2022-11-24T01:49:56.820Z,97613.00
2022-11-24T01:50:06.952Z,97613.00
2022-11-24T01:50:16.948Z,97613.00
2022-11-24T01:50:26.952Z,97613.00
2022-11-24T01:50:37.215Z,97615.00
2022-11-24T01:50:47.226Z,97615.00
2022-11-24T01:50:57.236Z,97615.00
2022-11-24T01:51:07.268Z,97617.00
2022-11-24T01:51:17.258Z,97615.00
2022-11-24T01:51:27.265Z,97617.00
2022-11-24T01:51:37.265Z,97613.00
2022-11-24T01:51:47.278Z,97615.00
2022-11-24T01:51:57.290Z,97615.00
2022-11-24T01:52:07.301Z,97615.00
2022-11-24T01:52:17.307Z,97613.00
2022-11-24T01:52:27.321Z,97613.00
2022-11-24T01:52:37.330Z,97615.00
2022-11-24T01:52:47.345Z,97615.00
2022-11-24T01:52:57.393Z,97613.00
2022-11-24T01:53:07.514Z,97613.00
2022-11-24T01:53:17.515Z,97613.00
2022-11-24T01:53:27.777Z,97613.00
2022-11-24T01:53:37.789Z,97613.00
2022-11-24T01:53:47.908Z,97615.00
2022-11-24T01:53:58.166Z,97615.00
2022-11-24T01:54:08.289Z,97613.00
2022-11-24T01:54:18.298Z,97615.00
2022-11-24T01:54:28.551Z,97613.00
2022-11-24T01:54:38.555Z,97613.00
2022-11-24T01:54:48.591Z,97615.00
2022-11-24T01:54:58.609Z,97615.00
2022-11-24T01:55:08.619Z,97611.00
2022-11-24T01:55:18.631Z,97613.00
2022-11-24T01:55:28.642Z,97613.00
2022-11-24T01:55:38.654Z,97615.00
2022-11-24T01:55:48.660Z,97613.00
2022-11-24T01:55:58.670Z,97613.00
2022-11-24T01:56:09.053Z,97613.00
2022-11-24T01:56:19.052Z,97613.00
2022-11-24T01:56:29.074Z,97613.00
2022-11-24T01:56:39.071Z,97613.00
2022-11-24T01:56:49.092Z,97617.00
2022-11-24T01:56:59.095Z,97617.00
2022-11-24T01:57:09.108Z,97613.00
2022-11-24T01:57:19.118Z,97617.00
2022-11-24T01:57:29.132Z,97615.00
2022-11-24T01:57:39.156Z,97615.00
2022-11-24T01:57:49.528Z,97617.00
2022-11-24T01:57:59.531Z,97617.00